createdAt,value
2023-01-29T00:00:10.082Z,55.20
2023-01-29T00:02:39.466Z,55.23
2023-01-29T00:05:25.407Z,55.25
2023-01-29T00:07:53.656Z,55.09
2023-01-29T00:10:20.375Z,55.15
2023-01-29T00:12:46.970Z,55.09
2023-01-29T00:15:13.609Z,55.12
2023-01-29T00:17:40.267Z,55.71
2023-01-29T00:20:07.183Z,55.54
2023-01-29T00:22:33.836Z,55.60
2023-01-29T00:25:00.648Z,55.48
2023-01-29T00:27:27.305Z,55.45
2023-01-29T00:30:12.039Z,55.30
2023-01-29T00:32:39.955Z,55.33
2023-01-29T00:35:08.038Z,55.26
2023-01-29T00:37:35.040Z,55.00
2023-01-29T00:40:01.635Z,54.98
2023-01-29T00:42:47.010Z,55.36
2023-01-29T00:45:14.168Z,55.26
2023-01-29T00:47:40.834Z,55.26
2023-01-29T00:50:10.379Z,55.19
2023-01-29T00:52:38.628Z,55.27
2023-01-29T00:55:06.052Z,55.14
2023-01-29T00:57:35.215Z,55.01
2023-01-29T01:00:03.619Z,54.83
2023-01-29T01:02:48.946Z,54.57
2023-01-29T01:05:19.745Z,54.87
2023-01-29T01:07:52.433Z,54.94
2023-01-29T01:10:27.411Z,55.02
2023-01-29T01:13:00.210Z,55.21
2023-01-29T01:15:38.465Z,55.09
2023-01-29T01:18:05.287Z,54.89
2023-01-29T01:20:35.989Z,54.81
2023-01-29T01:23:03.613Z,54.68
2023-01-29T01:25:30.293Z,54.63
2023-01-29T01:30:25.911Z,55.24
2023-01-29T01:32:52.986Z,55.10
2023-01-29T01:35:19.742Z,55.10
2023-01-29T01:37:46.460Z,55.24
2023-01-29T01:40:19.651Z,55.14
2023-01-29T01:42:55.461Z,55.31
2023-01-29T01:45:34.467Z,55.08
2023-01-29T01:48:11.442Z,55.18
2023-01-29T01:51:03.547Z,54.98
2023-01-29T01:53:38.556Z,54.96
2023-01-29T01:56:10.411Z,54.81
2023-01-29T01:58:42.560Z,54.59
2023-01-29T02:01:10.236Z,54.63
2023-01-29T02:04:12.428Z,54.58
2023-01-29T02:06:59.400Z,55.13
2023-01-29T02:09:38.809Z,55.17
2023-01-29T02:12:08.720Z,55.19
2023-01-29T02:14:40.926Z,55.20
2023-01-29T02:17:14.262Z,55.20
2023-01-29T02:20:12.157Z,55.23
2023-01-29T02:22:55.383Z,55.28
2023-01-29T02:25:39.473Z,55.07
2023-01-29T02:28:24.230Z,55.03
2023-01-29T02:31:00.926Z,54.90
2023-01-29T02:33:35.784Z,54.70
2023-01-29T02:36:27.426Z,54.67
2023-01-29T02:39:33.094Z,54.87
2023-01-29T02:42:14.961Z,54.63
2023-01-29T02:45:01.025Z,54.67
2023-01-29T02:47:35.085Z,54.53
2023-01-29T02:50:18.301Z,54.54
2023-01-29T02:53:02.007Z,55.09
2023-01-29T02:55:51.208Z,55.08
2023-01-29T02:58:54.766Z,55.18
2023-01-29T03:01:30.950Z,55.63
2023-01-29T03:04:21.434Z,55.47
2023-01-29T03:07:03.140Z,55.20
2023-01-29T03:09:51.475Z,55.12
2023-01-29T03:12:34.347Z,55.08
2023-01-29T03:15:16.662Z,55.13
2023-01-29T03:17:58.891Z,55.08
2023-01-29T03:20:33.355Z,55.28
2023-01-29T03:23:13.682Z,55.49
2023-01-29T03:26:02.101Z,55.24
2023-01-29T03:28:49.365Z,55.17
2023-01-29T03:31:37.564Z,54.81
2023-01-29T03:34:16.589Z,54.91
2023-01-29T03:36:58.116Z,54.93
2023-01-29T03:39:30.314Z,54.86
2023-01-29T03:42:05.392Z,54.59
2023-01-29T03:44:43.610Z,54.79
2023-01-29T03:47:21.193Z,54.48
2023-01-29T03:50:06.798Z,54.59
2023-01-29T03:52:45.490Z,54.25
2023-01-29T03:55:23.127Z,54.42
2023-01-29T03:58:20.420Z,54.36
2023-01-29T04:01:01.956Z,54.23
2023-01-29T04:03:42.172Z,54.13
2023-01-29T04:06:16.771Z,54.18
2023-01-29T04:09:25.287Z,54.45
2023-01-29T04:12:09.294Z,54.11
2023-01-29T04:14:38.459Z,54.24
2023-01-29T04:17:13.043Z,54.31
2023-01-29T04:20:06.684Z,54.45
2023-01-29T04:22:39.243Z,54.49
2023-01-29T04:25:16.048Z,54.40
2023-01-29T04:27:58.087Z,54.35
2023-01-29T04:30:54.599Z,54.36
2023-01-29T04:33:45.208Z,54.33
2023-01-29T04:36:33.378Z,54.36
2023-01-29T04:39:39.465Z,54.26
2023-01-29T04:42:44.880Z,54.28
2023-01-29T04:46:08.282Z,54.13
2023-01-29T04:48:58.078Z,54.26
2023-01-29T04:51:43.407Z,54.50
2023-01-29T04:54:20.671Z,54.49
2023-01-29T04:57:01.794Z,54.53
2023-01-29T04:59:43.187Z,54.70
2023-01-29T05:02:11.922Z,54.35
2023-01-29T05:04:40.972Z,54.31
2023-01-29T05:07:12.586Z,54.23
2023-01-29T05:09:39.792Z,54.28
2023-01-29T05:12:09.944Z,54.26
2023-01-29T05:14:38.920Z,54.27
2023-01-29T05:17:11.946Z,54.13
2023-01-29T05:19:38.676Z,54.34
2023-01-29T05:22:07.327Z,54.04
2023-01-29T05:24:37.235Z,54.16
2023-01-29T05:27:23.110Z,54.25
2023-01-29T05:29:49.698Z,54.50
2023-01-29T05:32:16.608Z,54.27
2023-01-29T05:34:43.320Z,54.23
2023-01-29T05:37:11.095Z,54.18
2023-01-29T05:39:37.697Z,54.27
2023-01-29T05:42:04.502Z,54.28
2023-01-29T05:44:31.095Z,54.30
2023-01-29T05:46:57.736Z,54.45
2023-01-29T05:49:24.376Z,54.27
2023-01-29T05:51:51.044Z,54.30
2023-01-29T05:54:17.644Z,54.12
2023-01-29T05:56:44.248Z,54.20
2023-01-29T05:59:10.878Z,54.17
2023-01-29T06:01:37.729Z,54.30
2023-01-29T06:04:04.467Z,54.23
2023-01-29T06:06:31.152Z,54.25
2023-01-29T06:08:57.900Z,54.22
2023-01-29T06:11:24.766Z,54.40
2023-01-29T06:13:51.441Z,54.51
2023-01-29T06:16:18.369Z,54.47
2023-01-29T06:18:45.048Z,54.61
2023-01-29T06:21:13.716Z,54.35
2023-01-29T06:23:41.451Z,54.72
2023-01-29T06:26:11.544Z,54.56
2023-01-29T06:28:38.842Z,54.45
2023-01-29T06:33:53.483Z,54.51
2023-01-29T06:36:20.162Z,54.37
2023-01-29T06:38:47.345Z,54.26
2023-01-29T06:41:17.741Z,54.57
2023-01-29T06:43:45.267Z,54.61
2023-01-29T06:46:12.133Z,54.39
2023-01-29T06:48:38.769Z,54.60
2023-01-29T06:51:08.213Z,54.51
2023-01-29T06:53:38.435Z,54.52
2023-01-29T06:56:06.253Z,54.56
2023-01-29T06:58:33.403Z,54.50
2023-01-29T07:01:08.591Z,54.52
2023-01-29T07:03:35.365Z,54.56
2023-01-29T07:06:02.346Z,54.57
2023-01-29T07:08:29.035Z,54.84
2023-01-29T07:11:03.102Z,54.78
2023-01-29T07:13:30.067Z,54.72
2023-01-29T07:16:05.408Z,54.43
2023-01-29T07:18:32.938Z,54.77
2023-01-29T07:20:59.738Z,54.61
2023-01-29T07:23:26.507Z,54.62
2023-01-29T07:25:53.187Z,54.72
2023-01-29T07:28:20.718Z,54.63
2023-01-29T07:30:47.630Z,54.67
2023-01-29T07:33:14.320Z,54.51
2023-01-29T07:35:43.273Z,54.33
2023-01-29T07:38:12.004Z,54.41
2023-01-29T07:40:38.666Z,54.42
2023-01-29T07:43:07.446Z,54.45
2023-01-29T07:45:36.523Z,54.23
2023-01-29T07:48:05.245Z,54.20
2023-01-29T07:50:33.357Z,54.11
2023-01-29T07:53:00.390Z,54.29
2023-01-29T07:55:27.526Z,54.22
2023-01-29T07:57:58.639Z,54.26
2023-01-29T08:00:25.372Z,54.10
2023-01-29T08:02:52.087Z,54.21
2023-01-29T08:05:19.307Z,54.51
2023-01-29T08:07:49.340Z,54.31
2023-01-29T08:10:24.234Z,54.54
2023-01-29T08:13:01.892Z,54.03
2023-01-29T08:15:29.474Z,54.19
2023-01-29T08:20:43.525Z,54.14
2023-01-29T08:23:15.635Z,53.97
2023-01-29T08:25:42.738Z,54.09
2023-01-29T08:28:09.970Z,53.92
2023-01-29T08:30:36.682Z,53.67
2023-01-29T08:33:04.146Z,53.72
2023-01-29T08:35:31.261Z,53.39
2023-01-29T08:38:00.355Z,53.08
2023-01-29T08:40:29.506Z,53.21
2023-01-29T08:43:06.199Z,52.95
2023-01-29T08:45:36.381Z,52.79
2023-01-29T08:48:03.485Z,52.43
2023-01-29T08:50:30.896Z,52.50
2023-01-29T08:52:59.420Z,52.38
2023-01-29T08:55:27.066Z,52.17
2023-01-29T08:57:53.747Z,51.99
2023-01-29T09:00:20.754Z,51.79
2023-01-29T09:02:47.477Z,51.47
2023-01-29T09:05:14.520Z,51.24
2023-01-29T09:07:41.579Z,50.74
2023-01-29T09:10:09.074Z,49.99
2023-01-29T09:12:35.832Z,49.44
2023-01-29T09:15:02.499Z,49.00
2023-01-29T09:17:29.103Z,48.71
2023-01-29T09:19:55.828Z,48.19
2023-01-29T09:22:22.461Z,48.08
2023-01-29T09:24:49.101Z,48.08
2023-01-29T09:27:15.774Z,47.99
2023-01-29T09:29:42.494Z,48.17
2023-01-29T09:32:09.201Z,48.44
2023-01-29T09:34:36.360Z,47.99
2023-01-29T09:37:02.941Z,48.81
2023-01-29T09:39:29.722Z,49.20
2023-01-29T09:42:15.755Z,48.92
2023-01-29T09:45:39.938Z,48.63
2023-01-29T09:48:12.173Z,48.56
2023-01-29T09:50:43.709Z,48.34
2023-01-29T09:53:35.135Z,48.13
2023-01-29T09:56:10.742Z,47.67
2023-01-29T09:58:39.843Z,47.51
2023-01-29T10:01:16.038Z,47.70
2023-01-29T10:04:06.360Z,47.60
2023-01-29T10:07:12.054Z,47.16
2023-01-29T10:10:08.175Z,46.88
2023-01-29T10:12:55.715Z,46.72
2023-01-29T10:15:38.522Z,46.85
2023-01-29T10:18:20.172Z,46.97
2023-01-29T10:21:25.337Z,46.34
2023-01-29T10:24:00.287Z,47.03
2023-01-29T10:26:28.835Z,46.29
2023-01-29T10:28:59.598Z,46.34
2023-01-29T10:31:31.817Z,47.02
2023-01-29T10:34:05.127Z,47.16
2023-01-29T10:36:45.092Z,47.54
2023-01-29T10:39:18.583Z,47.96
2023-01-29T10:42:20.040Z,47.32
2023-01-29T10:45:16.207Z,46.88
2023-01-29T10:48:04.856Z,46.28
2023-01-29T10:50:49.405Z,45.71
2023-01-29T10:53:43.215Z,45.54
2023-01-29T10:56:22.399Z,46.66
2023-01-29T10:59:01.625Z,46.16
2023-01-29T11:01:28.296Z,46.25
2023-01-29T11:04:02.346Z,45.84
2023-01-29T11:06:34.755Z,46.06
2023-01-29T11:09:11.955Z,45.60
2023-01-29T11:11:45.280Z,45.82
2023-01-29T11:14:44.645Z,46.14
2023-01-29T11:17:23.611Z,45.45
2023-01-29T11:19:52.186Z,45.49
2023-01-29T11:22:21.927Z,45.49
2023-01-29T11:25:15.564Z,45.43
2023-01-29T11:27:46.247Z,46.04
2023-01-29T11:30:39.040Z,46.62
2023-01-29T11:33:09.209Z,46.53
2023-01-29T11:35:36.824Z,46.56
2023-01-29T11:38:16.865Z,46.59
2023-01-29T11:40:45.176Z,46.58
2023-01-29T11:43:17.954Z,46.78
2023-01-29T11:45:45.727Z,46.89
2023-01-29T11:48:16.775Z,46.75
2023-01-29T11:50:50.785Z,46.80
2023-01-29T11:53:39.236Z,46.78
2023-01-29T11:56:30.551Z,46.59
2023-01-29T11:58:58.906Z,47.04
2023-01-29T12:01:43.447Z,47.17
2023-01-29T12:04:20.892Z,47.16
2023-01-29T12:06:52.098Z,47.17
2023-01-29T12:09:27.200Z,47.43
2023-01-29T12:11:54.411Z,47.78
2023-01-29T12:14:34.034Z,47.78
2023-01-29T12:17:12.693Z,47.73
2023-01-29T12:19:55.540Z,47.79
2023-01-29T12:22:32.357Z,47.93
2023-01-29T12:25:55.260Z,47.75
2023-01-29T12:28:24.911Z,47.72
2023-01-29T12:31:11.858Z,47.09
2023-01-29T12:33:52.649Z,46.82
2023-01-29T12:36:36.322Z,46.28
2023-01-29T12:39:03.228Z,46.17
2023-01-29T12:41:44.094Z,45.92
2023-01-29T12:44:29.564Z,45.52
2023-01-29T12:47:01.159Z,45.32
2023-01-29T12:49:32.819Z,45.30
2023-01-29T12:52:13.610Z,45.20
2023-01-29T12:54:47.164Z,45.01
2023-01-29T12:57:42.485Z,45.46
2023-01-29T13:00:22.640Z,44.81
2023-01-29T13:03:17.163Z,44.86
2023-01-29T13:05:59.049Z,45.72
2023-01-29T13:09:03.366Z,45.08
2023-01-29T13:11:40.992Z,45.29
2023-01-29T13:14:40.914Z,45.56
2023-01-29T13:17:34.225Z,45.10
2023-01-29T13:20:10.598Z,44.84
2023-01-29T13:22:40.887Z,44.85
2023-01-29T13:25:16.175Z,44.97
2023-01-29T13:27:43.854Z,45.20
2023-01-29T13:30:25.613Z,45.63
2023-01-29T13:32:54.979Z,45.59
2023-01-29T13:35:23.777Z,45.52
2023-01-29T13:37:53.861Z,45.51
2023-01-29T13:40:30.366Z,45.84
2023-01-29T13:43:00.245Z,45.93
2023-01-29T13:45:54.688Z,46.02
2023-01-29T13:48:28.968Z,45.88
2023-01-29T13:50:59.671Z,45.80
2023-01-29T13:53:40.511Z,45.71
2023-01-29T13:56:39.587Z,45.94
2023-01-29T13:59:07.033Z,46.24
2023-01-29T14:01:49.099Z,46.11
2023-01-29T14:04:18.623Z,46.16
2023-01-29T14:06:50.908Z,46.33
2023-01-29T14:09:33.752Z,46.43
2023-01-29T14:12:00.716Z,46.27
2023-01-29T14:14:49.120Z,46.41
2023-01-29T14:17:18.675Z,46.23
2023-01-29T14:19:54.787Z,46.47
2023-01-29T14:22:28.359Z,46.68
2023-01-29T14:24:59.811Z,46.92
2023-01-29T14:27:26.913Z,46.93
2023-01-29T14:30:00.929Z,47.10
2023-01-29T14:32:28.078Z,47.35
2023-01-29T14:35:04.161Z,47.60
2023-01-29T14:37:38.894Z,47.67
2023-01-29T14:40:11.366Z,48.07
2023-01-29T14:42:44.322Z,48.33
2023-01-29T14:45:42.034Z,48.50
2023-01-29T14:48:11.702Z,48.80
2023-01-29T14:50:50.367Z,48.82
2023-01-29T14:53:49.727Z,48.96
2023-01-29T14:56:54.439Z,49.10
2023-01-29T14:59:30.028Z,49.41
2023-01-29T15:02:00.870Z,49.65
2023-01-29T15:04:41.164Z,49.39
2023-01-29T15:07:20.033Z,49.60
2023-01-29T15:09:54.213Z,50.02
2023-01-29T15:12:36.127Z,50.02
2023-01-29T15:15:18.536Z,49.90
2023-01-29T15:17:54.208Z,49.97
2023-01-29T15:20:34.028Z,50.09
2023-01-29T15:23:04.785Z,50.49
2023-01-29T15:25:36.543Z,50.61
2023-01-29T15:28:08.618Z,50.76
2023-01-29T15:30:35.569Z,50.85
2023-01-29T15:33:03.934Z,50.98
2023-01-29T15:35:36.007Z,51.02
2023-01-29T15:38:07.162Z,50.94
2023-01-29T15:40:34.669Z,50.98
2023-01-29T15:43:01.314Z,50.96
2023-01-29T15:45:32.783Z,51.11
2023-01-29T15:48:05.563Z,51.28
2023-01-29T15:50:37.185Z,51.35
2023-01-29T15:53:09.333Z,51.48
2023-01-29T15:55:36.099Z,51.45
2023-01-29T15:58:02.907Z,51.98
2023-01-29T16:00:30.419Z,52.06
2023-01-29T16:02:57.904Z,52.09
2023-01-29T16:05:28.632Z,52.07
2023-01-29T16:07:57.244Z,52.48
2023-01-29T16:10:30.332Z,52.59
2023-01-29T16:12:57.965Z,52.61
2023-01-29T16:15:32.445Z,52.74
2023-01-29T16:18:00.692Z,52.96
2023-01-29T16:20:33.582Z,52.88
2023-01-29T16:23:00.740Z,52.92
2023-01-29T16:25:30.390Z,53.07
2023-01-29T16:27:58.870Z,53.19
2023-01-29T16:30:27.909Z,53.42
2023-01-29T16:33:02.020Z,53.46
2023-01-29T16:35:28.888Z,53.75
2023-01-29T16:38:03.263Z,54.05
2023-01-29T16:40:37.578Z,54.11
2023-01-29T16:43:42.769Z,54.01
2023-01-29T16:46:25.273Z,54.46
2023-01-29T16:48:52.722Z,54.44
2023-01-29T16:51:31.545Z,54.76
2023-01-29T16:54:07.257Z,54.84
2023-01-29T16:56:35.010Z,54.98
2023-01-29T16:59:04.493Z,55.12
2023-01-29T17:01:32.370Z,55.37
2023-01-29T17:04:10.053Z,55.66
2023-01-29T17:06:37.197Z,55.55
2023-01-29T17:09:05.250Z,55.87
2023-01-29T17:11:31.861Z,55.79
2023-01-29T17:13:59.276Z,55.97
2023-01-29T17:16:32.071Z,56.20
2023-01-29T17:18:59.923Z,56.24
2023-01-29T17:21:28.627Z,56.22
2023-01-29T17:23:55.334Z,56.19
2023-01-29T17:26:23.121Z,56.38
2023-01-29T17:28:51.379Z,56.65
2023-01-29T17:31:18.575Z,56.63
2023-01-29T17:33:45.905Z,56.83
2023-01-29T17:36:15.413Z,56.85
2023-01-29T17:38:42.468Z,56.96
2023-01-29T17:41:13.989Z,57.24
2023-01-29T17:43:40.694Z,57.23
2023-01-29T17:46:13.736Z,57.27
2023-01-29T17:48:40.479Z,57.56
2023-01-29T17:51:13.229Z,57.36
2023-01-29T17:53:45.815Z,57.49
2023-01-29T17:56:18.541Z,57.45
2023-01-29T17:58:45.184Z,57.68
2023-01-29T18:01:11.846Z,57.99
2023-01-29T18:03:39.105Z,57.80
2023-01-29T18:06:10.112Z,57.85
2023-01-29T18:08:39.315Z,57.94
2023-01-29T18:11:06.347Z,58.08
2023-01-29T18:13:35.519Z,57.93
2023-01-29T18:16:02.524Z,58.13
2023-01-29T18:18:29.221Z,58.18
2023-01-29T18:20:55.859Z,58.53
2023-01-29T18:23:23.039Z,58.37
2023-01-29T18:25:49.765Z,58.76
2023-01-29T18:28:17.674Z,58.34
2023-01-29T18:30:47.821Z,58.47
2023-01-29T18:33:16.034Z,58.50
2023-01-29T18:35:48.236Z,58.56
2023-01-29T18:38:14.830Z,58.65
2023-01-29T18:40:41.584Z,58.94
2023-01-29T18:43:08.256Z,58.70
2023-01-29T18:45:35.560Z,58.83
2023-01-29T18:48:02.279Z,58.94
2023-01-29T18:50:28.928Z,58.87
2023-01-29T18:52:55.701Z,59.07
2023-01-29T18:55:23.605Z,59.13
2023-01-29T18:58:33.424Z,59.14
2023-01-29T19:00:41.353Z,59.22
2023-01-29T19:03:10.739Z,59.19
2023-01-29T19:05:37.476Z,59.23
2023-01-29T19:08:05.421Z,59.06
2023-01-29T19:10:32.652Z,59.37
2023-01-29T19:12:59.336Z,59.21
2023-01-29T19:15:25.931Z,59.31
2023-01-29T19:17:53.142Z,59.38
2023-01-29T19:20:20.284Z,59.34
2023-01-29T19:22:47.322Z,59.39
2023-01-29T19:25:14.834Z,59.64
2023-01-29T19:27:41.545Z,59.61
2023-01-29T19:30:10.280Z,59.44
2023-01-29T19:32:36.909Z,59.62
2023-01-29T19:35:03.639Z,59.77
2023-01-29T19:37:31.097Z,59.86
2023-01-29T19:39:58.061Z,59.79
2023-01-29T19:42:24.772Z,59.87
2023-01-29T19:44:52.399Z,59.76
2023-01-29T19:47:19.507Z,59.90
2023-01-29T19:49:46.877Z,60.17
2023-01-29T19:52:49.698Z,60.14
2023-01-29T19:55:18.808Z,60.34
2023-01-29T19:57:46.632Z,60.28
2023-01-29T20:00:15.644Z,60.37
2023-01-29T20:02:42.354Z,60.15
2023-01-29T20:05:12.089Z,60.27
2023-01-29T20:07:41.217Z,60.52
2023-01-29T20:10:11.737Z,60.59
2023-01-29T20:12:38.465Z,60.33
2023-01-29T20:15:05.522Z,60.71
2023-01-29T20:17:32.254Z,60.71
2023-01-29T20:19:58.981Z,60.59
2023-01-29T20:22:26.850Z,60.78
2023-01-29T20:24:53.874Z,60.65
2023-01-29T20:27:20.500Z,60.74
2023-01-29T20:29:47.162Z,60.90
2023-01-29T20:32:14.656Z,60.74
2023-01-29T20:34:41.702Z,60.86
2023-01-29T20:37:08.401Z,60.86
2023-01-29T20:39:35.121Z,60.80
2023-01-29T20:42:01.885Z,60.98
2023-01-29T20:44:28.628Z,60.79
2023-01-29T20:46:56.454Z,60.82
2023-01-29T20:49:23.123Z,60.98
2023-01-29T20:51:50.105Z,60.74
2023-01-29T20:54:16.748Z,60.62
2023-01-29T20:56:44.672Z,60.70
2023-01-29T20:59:14.071Z,60.78
2023-01-29T21:01:41.845Z,60.50
2023-01-29T21:04:08.514Z,60.70
2023-01-29T21:06:35.175Z,60.62
2023-01-29T21:09:01.823Z,60.78
2023-01-29T21:11:28.699Z,60.73
2023-01-29T21:13:57.873Z,60.98
2023-01-29T21:16:26.384Z,60.88
2023-01-29T21:18:57.622Z,60.88
2023-01-29T21:21:24.647Z,61.32
2023-01-29T21:23:51.324Z,61.07
2023-01-29T21:26:19.117Z,61.05
2023-01-29T21:28:46.184Z,61.13
2023-01-29T21:31:14.724Z,61.06
2023-01-29T21:33:41.755Z,61.24
2023-01-29T21:36:10.121Z,61.26
2023-01-29T21:38:36.934Z,61.08
2023-01-29T21:41:07.209Z,61.27
2023-01-29T21:43:33.869Z,61.22
2023-01-29T21:46:05.143Z,61.25
2023-01-29T21:48:32.204Z,61.19
2023-01-29T21:50:58.798Z,61.38
2023-01-29T21:53:25.422Z,61.35
2023-01-29T21:55:52.038Z,61.31
2023-01-29T21:58:20.824Z,61.41
2023-01-29T22:00:48.944Z,61.56
2023-01-29T22:03:15.823Z,61.58
2023-01-29T22:05:42.634Z,61.50
2023-01-29T22:08:09.961Z,61.52
2023-01-29T22:10:37.096Z,61.67
2023-01-29T22:13:03.842Z,61.73
2023-01-29T22:15:30.527Z,61.59
2023-01-29T22:17:57.158Z,61.65
2023-01-29T22:20:30.150Z,61.48
2023-01-29T22:22:59.454Z,61.85
2023-01-29T22:25:26.656Z,61.76
2023-01-29T22:27:53.405Z,61.82
2023-01-29T22:30:20.596Z,61.98
2023-01-29T22:32:47.367Z,61.92
2023-01-29T22:35:14.119Z,61.93
2023-01-29T22:37:40.732Z,61.88
2023-01-29T22:40:07.939Z,62.08
2023-01-29T22:42:34.554Z,61.99
2023-01-29T22:45:01.175Z,62.17
2023-01-29T22:47:27.817Z,62.09
2023-01-29T22:49:54.401Z,62.14
2023-01-29T22:52:22.160Z,61.96
2023-01-29T22:54:48.872Z,62.20
2023-01-29T22:57:15.702Z,62.06
2023-01-29T22:59:42.345Z,62.01
2023-01-29T23:02:09.927Z,61.88
2023-01-29T23:04:37.017Z,61.87
2023-01-29T23:07:03.751Z,62.01
2023-01-29T23:09:30.420Z,61.92
2023-01-29T23:11:57.068Z,62.09
2023-01-29T23:14:23.723Z,61.91
2023-01-29T23:16:50.343Z,61.96
2023-01-29T23:19:17.218Z,62.04
2023-01-29T23:21:43.821Z,62.16
2023-01-29T23:24:10.926Z,62.49
2023-01-29T23:26:56.219Z,62.91
2023-01-29T23:29:23.019Z,62.87
2023-01-29T23:31:49.832Z,62.45
2023-01-29T23:34:16.662Z,62.53
2023-01-29T23:36:43.535Z,62.33
2023-01-29T23:39:10.544Z,62.26
2023-01-29T23:41:37.215Z,62.13
2023-01-29T23:44:04.293Z,62.02
2023-01-29T23:46:31.369Z,61.79
2023-01-29T23:48:58.269Z,61.93
2023-01-29T23:51:24.887Z,61.78
2023-01-29T23:53:51.677Z,61.83
2023-01-29T23:56:18.597Z,61.98
2023-01-29T23:58:45.846Z,61.96
